Time;durP1;ratioP1;P1;durP2;ratioP2;P2;SDS_P1;SDS_P2;PMS_P1;PMS_P2;Temp;Humidity;BMP_temperature;BMP_pressure;BME280_temperature;BME280_humidity;BME280_pressure;Samples;Min_cycle;Max_cycle;Signal;HPM_P1;HPM_P2
2023/02/25 00:01:07;;;;;;;12.15;2.83;;;4.90;99.90;;;;;;4948315;29;20055;-60
2023/02/25 00:03:34;;;;;;;12.85;2.38;;;4.90;99.90;;;;;;4948663;29;20767;-59
2023/02/25 00:06:03;;;;;;;13.55;3.00;;;4.90;99.90;;;;;;4931365;29;20057;-58
2023/02/25 00:08:31;;;;;;;23.30;3.00;;;4.90;99.90;;;;;;4931713;29;20055;-62
2023/02/25 00:11:02;;;;;;;8.70;2.00;;;4.90;99.90;;;;;;4948070;29;20051;-59
2023/02/25 00:13:29;;;;;;;15.63;3.55;;;4.80;99.90;;;;;;4947843;29;20565;-58
2023/02/25 00:15:56;;;;;;;10.95;1.80;;;4.90;99.90;;;;;;4963254;28;20053;-59
2023/02/25 00:18:26;;;;;;;9.27;2.05;;;4.80;99.90;;;;;;4942686;29;20051;-58
2023/02/25 00:20:53;;;;;;;12.07;2.10;;;4.90;99.90;;;;;;4948020;29;20074;-59
2023/02/25 00:23:20;;;;;;;7.45;2.17;;;4.90;99.90;;;;;;4933310;29;20055;-58
2023/02/25 00:25:47;;;;;;;9.52;2.15;;;4.90;99.90;;;;;;4932434;29;20044;-59
2023/02/25 00:28:14;;;;;;;14.60;2.53;;;4.90;99.90;;;;;;4950601;29;20062;-60
2023/02/25 00:30:41;;;;;;;9.93;1.95;;;4.90;99.90;;;;;;4949875;29;20039;-60
2023/02/25 00:33:09;;;;;;;15.88;3.20;;;4.90;99.90;;;;;;4950630;28;20138;-59
2023/02/25 00:35:40;;;;;;;12.75;3.70;;;4.80;99.90;;;;;;4950259;29;20083;-59
2023/02/25 00:38:07;;;;;;;17.10;3.97;;;4.80;99.90;;;;;;4950847;29;20071;-59
2023/02/25 00:40:41;;;;;;;17.27;2.30;;;4.80;99.90;;;;;;4950677;29;20107;-59
2023/02/25 00:43:08;;;;;;;12.15;1.98;;;4.70;99.90;;;;;;4946096;29;20086;-59
2023/02/25 00:45:38;;;;;;;7.57;2.58;;;4.70;99.90;;;;;;4942769;29;20047;-58
2023/02/25 00:48:05;;;;;;;9.65;2.80;;;4.70;99.90;;;;;;4928833;29;20415;-59
2023/02/25 00:50:32;;;;;;;11.80;2.50;;;4.70;99.90;;;;;;4941301;29;20426;-59
2023/02/25 00:52:59;;;;;;;12.40;2.83;;;4.60;99.90;;;;;;4948010;29;20413;-61
2023/02/25 00:55:32;;;;;;;6.53;1.83;;;4.60;99.90;;;;;;4933353;29;20055;-58
2023/02/25 00:58:00;;;;;;;11.07;2.72;;;4.60;99.90;;;;;;4949674;29;20050;-59
2023/02/25 01:00:27;;;;;;;10.02;1.83;;;4.60;99.90;;;;;;4950234;29;20418;-58
2023/02/25 01:02:55;;;;;;;16.55;2.55;;;4.70;99.90;;;;;;4950314;29;20122;-58
2023/02/25 01:05:22;;;;;;;16.02;2.33;;;4.60;99.90;;;;;;4932484;29;20059;-58
2023/02/25 01:07:49;;;;;;;10.05;2.15;;;4.60;99.90;;;;;;4950221;29;20578;-58
2023/02/25 01:10:16;;;;;;;9.23;1.98;;;4.70;99.90;;;;;;4949902;29;20061;-59
2023/02/25 01:12:43;;;;;;;11.13;2.42;;;4.70;99.90;;;;;;4956029;28;20046;-58
2023/02/25 01:15:10;;;;;;;7.72;1.65;;;4.70;99.90;;;;;;4951596;28;20047;-58
2023/02/25 01:17:37;;;;;;;6.63;1.60;;;4.70;99.90;;;;;;4950148;29;20053;-59
2023/02/25 01:20:11;;;;;;;8.18;1.77;;;5.00;99.90;;;;;;4916770;29;20073;-58
2023/02/25 01:22:40;;;;;;;7.68;3.75;;;4.80;99.90;;;;;;4934000;29;20039;-60
2023/02/25 01:25:12;;;;;;;9.00;2.17;;;4.70;99.90;;;;;;4950265;29;20047;-57
2023/02/25 01:27:39;;;;;;;9.95;2.30;;;4.80;99.90;;;;;;4932930;29;20057;-58
2023/02/25 01:30:07;;;;;;;13.77;2.58;;;4.70;99.90;;;;;;4949522;29;20082;-58
2023/02/25 01:32:33;;;;;;;4.30;1.30;;;4.70;99.90;;;;;;4949407;29;20047;-59
2023/02/25 01:35:01;;;;;;;9.07;1.40;;;4.70;99.90;;;;;;4949970;29;20067;-57
2023/02/25 01:37:28;;;;;;;11.38;3.90;;;4.60;99.90;;;;;;4949725;29;20560;-59
2023/02/25 01:39:54;;;;;;;10.07;3.30;;;4.60;99.90;;;;;;4949920;29;20074;-59
2023/02/25 01:42:22;;;;;;;17.52;2.90;;;4.50;99.90;;;;;;4949325;29;20058;-59
2023/02/25 01:45:17;;;;;;;4.85;2.10;;;4.50;99.90;;;;;;4949779;29;20047;-60
2023/02/25 01:47:45;;;;;;;6.57;1.70;;;4.50;99.90;;;;;;4950051;29;20065;-59
2023/02/25 01:50:12;;;;;;;9.23;2.20;;;4.40;99.90;;;;;;4917242;29;20134;-59
2023/02/25 01:52:39;;;;;;;13.45;3.88;;;4.40;99.90;;;;;;4917041;29;20146;-58
2023/02/25 01:55:08;;;;;;;11.02;2.33;;;4.50;99.90;;;;;;4917136;29;20051;-58
2023/02/25 01:57:35;;;;;;;5.72;1.88;;;4.40;99.90;;;;;;4917045;29;20045;-60
2023/02/25 02:00:09;;;;;;;14.15;2.40;;;4.40;99.90;;;;;;4949646;29;20047;-59
2023/02/25 02:02:35;;;;;;;13.20;3.03;;;4.40;99.90;;;;;;4949573;29;20050;-59
2023/02/25 02:05:03;;;;;;;10.65;3.33;;;4.40;99.90;;;;;;4931823;29;20070;-59
2023/02/25 02:07:29;;;;;;;6.47;2.00;;;4.50;99.90;;;;;;4932785;29;20051;-59
2023/02/25 02:09:57;;;;;;;6.78;2.45;;;4.50;99.90;;;;;;4949715;29;20425;-59
2023/02/25 02:12:35;;;;;;;7.65;2.60;;;4.60;99.90;;;;;;4949871;29;20047;-58
2023/02/25 02:15:08;;;;;;;10.25;1.83;;;4.60;99.90;;;;;;4957142;28;20714;-58
2023/02/25 02:17:40;;;;;;;8.57;2.10;;;4.60;99.90;;;;;;4592039;28;10000295;-58
2023/02/25 02:20:20;;;;;;;10.90;3.30;;;4.60;99.90;;;;;;4933038;29;20051;-59
2023/02/25 02:23:07;;;;;;;14.82;1.98;;;4.60;99.90;;;;;;4902136;29;20087;-60
2023/02/25 02:25:52;;;;;;;9.55;3.00;;;4.60;99.90;;;;;;4932463;29;20520;-59
2023/02/25 02:28:46;;;;;;;8.95;2.58;;;4.60;99.90;;;;;;4953600;29;20053;-57
2023/02/25 02:31:32;;;;;;;8.45;1.92;;;4.70;99.90;;;;;;4916435;29;20051;-59
2023/02/25 02:34:29;;;;;;;10.15;1.90;;;4.70;99.90;;;;;;4936021;29;20096;-59
2023/02/25 02:37:16;;;;;;;13.25;2.42;;;4.70;99.90;;;;;;4943467;29;20043;-60
2023/02/25 02:39:45;;;;;;;8.75;2.97;;;4.70;99.90;;;;;;4935771;29;20047;-59
2023/02/25 02:42:57;;;;;;;9.63;2.20;;;4.70;99.90;;;;;;4952723;29;20049;-57
2023/02/25 02:45:27;;;;;;;5.78;1.77;;;4.70;99.90;;;;;;4924252;28;20051;-58
2023/02/25 02:48:06;;;;;;;12.45;3.25;;;4.60;99.90;;;;;;4957889;28;20285;-58
2023/02/25 02:50:53;;;;;;;8.90;1.40;;;4.60;99.90;;;;;;4920740;29;20040;-56
2023/02/25 02:53:26;;;;;;;6.93;2.08;;;4.60;99.90;;;;;;4935153;29;20097;-58
2023/02/25 02:55:54;;;;;;;14.32;3.83;;;4.60;99.90;;;;;;4935201;29;20070;-57
2023/02/25 02:58:24;;;;;;;13.25;2.88;;;4.60;99.90;;;;;;4920368;29;20051;-58
2023/02/25 03:00:54;;;;;;;10.63;2.13;;;4.60;99.90;;;;;;4934936;29;20043;-61
2023/02/25 03:03:35;;;;;;;13.60;2.15;;;4.60;99.90;;;;;;4936172;29;20118;-58
2023/02/25 03:06:04;;;;;;;5.18;1.85;;;4.60;99.90;;;;;;4937551;29;20127;-59
2023/02/25 03:08:32;;;;;;;20.80;3.45;;;4.60;99.90;;;;;;4920346;29;20138;-59
2023/02/25 03:10:59;;;;;;;15.43;2.33;;;4.60;99.90;;;;;;4918928;29;20066;-58
2023/02/25 03:13:26;;;;;;;8.13;2.15;;;4.60;99.90;;;;;;4952207;29;20051;-58
2023/02/25 03:15:52;;;;;;;12.82;2.97;;;4.60;99.90;;;;;;4934830;29;20494;-60
2023/02/25 03:18:29;;;;;;;6.43;1.95;;;4.60;99.90;;;;;;4919739;29;20455;-59
2023/02/25 03:20:55;;;;;;;8.02;1.73;;;4.60;99.90;;;;;;4935515;29;20039;-58
2023/02/25 03:23:28;;;;;;;13.32;1.95;;;4.50;99.90;;;;;;4919509;29;20095;-59
2023/02/25 03:25:58;;;;;;;8.23;2.22;;;4.50;99.90;;;;;;4935294;29;20371;-58
2023/02/25 03:28:29;;;;;;;12.18;2.50;;;4.60;99.90;;;;;;4934681;29;20047;-58
2023/02/25 03:31:05;;;;;;;13.38;2.30;;;4.60;99.90;;;;;;4919383;29;20062;-56
2023/02/25 03:33:52;;;;;;;5.97;2.72;;;4.50;99.90;;;;;;4953012;28;20173;-58
2023/02/25 03:36:28;;;;;;;10.13;2.13;;;4.50;99.90;;;;;;4951906;28;20047;-59
2023/02/25 03:39:01;;;;;;;12.50;1.85;;;4.50;99.90;;;;;;4920347;29;20047;-59
2023/02/25 03:41:34;;;;;;;15.77;1.98;;;4.50;99.90;;;;;;4919110;29;20184;-58
2023/02/25 03:44:01;;;;;;;7.05;1.83;;;4.50;99.90;;;;;;4920107;29;20069;-59
2023/02/25 03:46:28;;;;;;;13.10;2.70;;;4.40;99.90;;;;;;4919031;29;20047;-59
2023/02/25 03:48:55;;;;;;;11.27;2.53;;;4.40;99.90;;;;;;4935090;29;20054;-58
2023/02/25 03:51:26;;;;;;;9.68;1.75;;;4.40;99.90;;;;;;4918505;29;20049;-58
2023/02/25 03:53:53;;;;;;;10.55;2.92;;;4.30;99.90;;;;;;4919088;29;20458;-57
2023/02/25 03:56:19;;;;;;;10.55;1.98;;;4.20;99.90;;;;;;4951978;29;20051;-60
2023/02/25 03:58:46;;;;;;;9.98;2.00;;;4.20;99.90;;;;;;4951546;29;20134;-57
2023/02/25 04:01:20;;;;;;;17.77;2.65;;;4.20;99.90;;;;;;4934168;29;20142;-56
2023/02/25 04:03:47;;;;;;;8.73;2.35;;;4.20;99.90;;;;;;4917583;29;20270;-57
2023/02/25 04:06:14;;;;;;;11.45;1.90;;;4.20;99.90;;;;;;4950089;29;20058;-59
2023/02/25 04:08:41;;;;;;;6.50;1.75;;;4.20;99.90;;;;;;4951135;29;20146;-58
2023/02/25 04:11:07;;;;;;;11.48;1.67;;;4.30;99.90;;;;;;4951327;29;20086;-58
2023/02/25 04:13:34;;;;;;;8.38;1.70;;;4.30;99.90;;;;;;4951233;29;20494;-59
2023/02/25 04:16:01;;;;;;;10.90;1.88;;;4.40;99.90;;;;;;4951028;29;20054;-60
2023/02/25 04:18:27;;;;;;;7.70;1.83;;;4.30;99.90;;;;;;4951652;29;20390;-56
2023/02/25 04:20:54;;;;;;;11.52;1.88;;;4.30;99.90;;;;;;4951016;29;20058;-59
2023/02/25 04:23:21;;;;;;;8.25;1.60;;;4.30;99.90;;;;;;4954318;28;20051;-60
2023/02/25 04:25:48;;;;;;;11.80;2.13;;;4.30;99.90;;;;;;4951035;29;20055;-59
2023/02/25 04:28:14;;;;;;;10.75;2.10;;;4.40;99.90;;;;;;4933966;29;20046;-59
2023/02/25 04:30:41;;;;;;;14.02;1.92;;;4.40;99.90;;;;;;4950856;29;20055;-58
2023/02/25 04:33:10;;;;;;;6.18;1.75;;;4.40;99.90;;;;;;4950476;29;20427;-58
2023/02/25 04:35:37;;;;;;;19.35;3.13;;;4.40;99.90;;;;;;4950621;29;20541;-59
2023/02/25 04:38:04;;;;;;;9.27;1.85;;;4.40;99.90;;;;;;4933236;28;20047;-59
2023/02/25 04:40:34;;;;;;;12.32;2.40;;;4.40;99.90;;;;;;4950475;29;20430;-58
2023/02/25 04:43:01;;;;;;;8.80;1.63;;;4.50;99.90;;;;;;4933554;29;20047;-60
2023/02/25 04:45:31;;;;;;;6.70;1.95;;;4.50;99.90;;;;;;4950433;29;20047;-59
2023/02/25 04:47:58;;;;;;;11.80;1.88;;;4.70;99.90;;;;;;4933907;29;20394;-59
2023/02/25 04:50:24;;;;;;;12.05;2.25;;;4.50;99.90;;;;;;4950321;29;20051;-60
2023/02/25 04:52:51;;;;;;;9.80;1.90;;;4.50;99.90;;;;;;4950714;29;20047;-57
2023/02/25 04:55:18;;;;;;;9.00;1.63;;;4.40;99.90;;;;;;4950331;29;20194;-58
2023/02/25 04:57:45;;;;;;;13.05;2.20;;;4.40;99.90;;;;;;4950781;29;20110;-56
2023/02/25 05:00:18;;;;;;;9.65;1.92;;;4.40;99.90;;;;;;4949917;29;20425;-58
2023/02/25 05:02:46;;;;;;;11.88;2.35;;;4.40;99.90;;;;;;4950597;29;20051;-59
2023/02/25 05:05:13;;;;;;;13.95;2.60;;;4.40;99.90;;;;;;4949933;29;20090;-57
2023/02/25 05:07:40;;;;;;;10.55;2.95;;;4.40;99.90;;;;;;4950277;29;20047;-58
2023/02/25 05:10:08;;;;;;;15.38;3.33;;;4.40;99.90;;;;;;4949786;29;20098;-58
2023/02/25 05:12:34;;;;;;;16.00;1.92;;;4.40;99.90;;;;;;4950129;29;20128;-58
2023/02/25 05:15:04;;;;;;;7.75;2.58;;;4.40;99.90;;;;;;4932662;29;20499;-56
2023/02/25 05:17:31;;;;;;;14.15;4.30;;;4.40;99.90;;;;;;4933620;29;20051;-58
2023/02/25 05:19:58;;;;;;;8.95;2.10;;;4.40;99.90;;;;;;4950429;28;20049;-58
2023/02/25 05:22:27;;;;;;;9.27;2.25;;;4.50;99.90;;;;;;4950311;29;20047;-57
2023/02/25 05:24:54;;;;;;;8.38;2.05;;;4.40;99.90;;;;;;4949658;29;20494;-57
2023/02/25 05:27:21;;;;;;;7.80;1.67;;;4.50;99.90;;;;;;4950049;29;20142;-59
2023/02/25 05:29:50;;;;;;;8.88;1.98;;;4.50;99.90;;;;;;4953031;28;20043;-57
2023/02/25 05:32:17;;;;;;;11.65;2.00;;;4.40;99.90;;;;;;4946420;29;20113;-57
2023/02/25 05:34:43;;;;;;;12.35;2.75;;;4.40;99.90;;;;;;4950202;29;20050;-59
2023/02/25 05:37:10;;;;;;;10.48;2.25;;;4.40;99.90;;;;;;4932778;29;20054;-59
2023/02/25 05:39:37;;;;;;;9.68;2.30;;;4.40;99.90;;;;;;4949774;29;20511;-59
2023/02/25 05:42:04;;;;;;;8.10;2.80;;;4.40;99.90;;;;;;4949167;29;20055;-59
2023/02/25 05:44:30;;;;;;;14.20;2.45;;;4.40;99.90;;;;;;4949993;29;20498;-59
2023/02/25 05:46:57;;;;;;;7.72;2.03;;;4.30;99.90;;;;;;4949431;29;20053;-57
2023/02/25 05:49:24;;;;;;;8.07;1.73;;;4.40;99.90;;;;;;4950126;28;20051;-59
2023/02/25 05:51:51;;;;;;;11.65;2.13;;;4.30;99.90;;;;;;4948796;29;20138;-57
2023/02/25 05:54:17;;;;;;;14.15;3.08;;;4.40;99.90;;;;;;4949979;29;20087;-59
2023/02/25 05:56:44;;;;;;;15.60;2.85;;;4.40;99.90;;;;;;4950667;28;20054;-57
2023/02/25 05:59:11;;;;;;;11.27;1.88;;;4.40;99.90;;;;;;4938159;29;20048;-58
2023/02/25 06:01:38;;;;;;;16.05;3.58;;;4.50;99.90;;;;;;4949201;29;20051;-57
2023/02/25 06:04:04;;;;;;;9.68;2.63;;;4.50;99.90;;;;;;4949543;29;20059;-57
2023/02/25 06:06:31;;;;;;;10.13;2.60;;;4.50;99.90;;;;;;4949182;29;20066;-58
2023/02/25 06:08:58;;;;;;;11.40;3.50;;;4.40;99.90;;;;;;4949378;29;20126;-58
2023/02/25 06:11:27;;;;;;;10.05;2.05;;;4.40;99.90;;;;;;4949267;29;20063;-61
2023/02/25 06:13:57;;;;;;;8.88;2.78;;;4.40;99.90;;;;;;4954055;28;20118;-59
2023/02/25 06:16:24;;;;;;;7.93;2.45;;;4.40;99.90;;;;;;4932236;29;20051;-57
2023/02/25 06:18:52;;;;;;;9.27;2.25;;;4.40;99.90;;;;;;4949433;29;20046;-58
2023/02/25 06:21:19;;;;;;;7.97;2.35;;;4.40;99.90;;;;;;4948961;29;20134;-56
2023/02/25 06:23:45;;;;;;;5.15;2.15;;;4.50;99.90;;;;;;4949149;29;20138;-58
2023/02/25 06:26:12;;;;;;;12.40;2.58;;;4.40;99.90;;;;;;4949743;29;20135;-59
2023/02/25 06:28:39;;;;;;;10.60;2.50;;;4.40;99.90;;;;;;4936401;29;20051;-59
2023/02/25 06:31:10;;;;;;;8.07;2.35;;;4.40;99.90;;;;;;4953563;29;20139;-61
2023/02/25 06:33:38;;;;;;;10.60;2.35;;;4.30;99.90;;;;;;4952493;29;20110;-58
2023/02/25 06:36:05;;;;;;;15.82;2.38;;;4.40;99.90;;;;;;4952160;29;20086;-55
2023/02/25 06:38:34;;;;;;;13.35;3.03;;;4.40;99.90;;;;;;4950411;29;20044;-58
2023/02/25 06:41:09;;;;;;;13.80;2.97;;;4.40;99.90;;;;;;4949599;28;20463;-58
2023/02/25 06:43:35;;;;;;;;;;;4.30;99.90;;;;;;4949937;29;20057;-57
2023/02/25 06:46:04;;;;;;;17.88;2.70;;;4.30;99.90;;;;;;4949286;29;20040;-59
2023/02/25 06:48:31;;;;;;;8.90;3.15;;;4.30;99.90;;;;;;4932706;29;20049;-59
2023/02/25 06:50:58;;;;;;;9.32;2.05;;;4.30;99.90;;;;;;4947861;28;20057;-58
2023/02/25 06:53:25;;;;;;;17.73;2.40;;;4.30;99.90;;;;;;4937906;29;20398;-59
2023/02/25 06:55:51;;;;;;;9.13;2.42;;;4.30;99.90;;;;;;4932497;28;20090;-59
2023/02/25 06:58:18;;;;;;;12.38;2.92;;;4.30;99.90;;;;;;4935315;28;20040;-59
2023/02/25 07:00:45;;;;;;;13.35;3.38;;;4.40;99.90;;;;;;4940565;29;20134;-59
2023/02/25 07:03:12;;;;;;;12.30;2.45;;;4.40;99.90;;;;;;4942668;28;20134;-59
2023/02/25 07:05:38;;;;;;;17.35;2.88;;;4.30;99.90;;;;;;4948752;29;20051;-59
2023/02/25 07:08:05;;;;;;;8.77;2.45;;;4.30;99.90;;;;;;4952030;29;20048;-57
2023/02/25 07:10:33;;;;;;;12.57;2.33;;;4.40;99.90;;;;;;4606695;28;9999878;-59
2023/02/25 07:13:03;;;;;;;13.35;2.70;;;4.30;99.90;;;;;;4931481;29;20114;-57
2023/02/25 07:15:30;;;;;;;8.48;2.17;;;4.30;99.90;;;;;;4928777;29;20051;-59
2023/02/25 07:17:56;;;;;;;11.20;2.17;;;4.30;99.90;;;;;;4937164;29;20055;-59
2023/02/25 07:20:23;;;;;;;10.82;2.75;;;4.40;99.90;;;;;;4945641;28;20416;-58
2023/02/25 07:22:50;;;;;;;10.18;2.20;;;4.40;99.90;;;;;;4937642;29;20066;-58
2023/02/25 07:25:17;;;;;;;13.05;2.22;;;4.40;99.90;;;;;;4947833;28;20517;-61
2023/02/25 07:27:45;;;;;;;7.45;1.65;;;4.40;99.90;;;;;;4939121;29;20071;-60
2023/02/25 07:30:12;;;;;;;8.32;2.35;;;4.40;99.90;;;;;;4948113;28;20402;-60
2023/02/25 07:32:39;;;;;;;10.65;2.20;;;4.40;99.90;;;;;;4948176;29;20079;-59
2023/02/25 07:35:07;;;;;;;12.85;2.40;;;4.40;99.90;;;;;;4938564;28;20467;-59
2023/02/25 07:37:34;;;;;;;12.25;2.58;;;4.50;99.90;;;;;;4940948;29;20051;-55
2023/02/25 07:40:01;;;;;;;11.15;2.78;;;4.50;99.90;;;;;;4939580;28;20047;-58
2023/02/25 07:42:28;;;;;;;16.70;3.60;;;4.50;99.90;;;;;;4946130;29;20047;-59
2023/02/25 07:44:54;;;;;;;13.88;2.38;;;4.50;99.90;;;;;;4940933;28;20070;-57
2023/02/25 07:47:21;;;;;;;12.43;2.22;;;4.50;99.90;;;;;;4945102;28;20510;-59
2023/02/25 07:49:48;;;;;;;16.23;2.42;;;4.50;99.90;;;;;;4944104;28;20154;-58
2023/02/25 07:52:15;;;;;;;12.80;2.40;;;4.50;99.90;;;;;;4929856;29;20043;-58
2023/02/25 07:54:41;;;;;;;9.63;2.10;;;4.60;99.90;;;;;;4946197;28;20051;-58
2023/02/25 07:57:08;;;;;;;15.60;3.00;;;4.70;99.90;;;;;;4943236;29;20161;-58
2023/02/25 07:59:35;;;;;;;12.30;3.55;;;4.60;99.90;;;;;;4941187;28;20130;-56
2023/02/25 08:02:03;;;;;;;13.40;3.42;;;4.70;99.90;;;;;;4940313;28;20163;-59
2023/02/25 08:04:33;;;;;;;8.35;2.22;;;4.70;99.90;;;;;;4939429;28;20047;-56
2023/02/25 08:07:00;;;;;;;10.05;2.08;;;4.70;99.90;;;;;;4940939;29;20440;-59
2023/02/25 08:09:30;;;;;;;7.53;2.20;;;4.70;99.90;;;;;;4935742;28;20157;-55
2023/02/25 08:11:57;;;;;;;10.85;2.15;;;4.70;99.90;;;;;;4939741;29;20134;-59
2023/02/25 08:14:26;;;;;;;11.80;2.17;;;4.80;99.90;;;;;;4933864;28;20077;-59
2023/02/25 08:17:00;;;;;;;5.82;1.83;;;4.80;99.90;;;;;;4943078;29;20059;-59
2023/02/25 08:19:28;;;;;;;12.13;2.65;;;4.90;99.90;;;;;;4930191;29;20134;-59
2023/02/25 08:22:10;;;;;;;16.20;3.03;;;4.90;99.90;;;;;;4945555;29;20055;-59
2023/02/25 08:24:38;;;;;;;9.60;2.28;;;4.90;99.90;;;;;;4924326;29;20098;-61
2023/02/25 08:27:08;;;;;;;25.17;5.55;;;5.00;99.90;;;;;;4943383;28;20065;-57
2023/02/25 08:29:37;;;;;;;16.67;3.13;;;5.10;99.90;;;;;;4939181;28;20441;-58
2023/02/25 08:32:07;;;;;;;17.27;2.90;;;5.00;99.90;;;;;;4946804;28;20069;-58
2023/02/25 08:34:34;;;;;;;17.50;3.88;;;5.00;99.90;;;;;;4929553;29;20221;-59
2023/02/25 08:37:10;;;;;;;16.05;3.22;;;5.10;99.90;;;;;;4939755;29;20138;-59
2023/02/25 08:39:37;;;;;;;19.40;4.00;;;5.10;99.90;;;;;;4937986;28;20122;-58
2023/02/25 08:42:04;;;;;;;17.58;3.15;;;5.10;99.90;;;;;;4913184;29;20585;-60
2023/02/25 08:44:31;;;;;;;16.65;3.28;;;5.10;99.90;;;;;;4944390;28;20043;-60
2023/02/25 08:47:01;;;;;;;21.48;4.03;;;5.20;99.90;;;;;;4944944;29;20074;-60
2023/02/25 08:49:35;;;;;;;13.25;2.85;;;5.20;99.90;;;;;;4901028;29;20372;-58
2023/02/25 08:52:06;;;;;;;18.25;3.28;;;5.20;99.90;;;;;;4916115;29;20166;-59
2023/02/25 08:54:34;;;;;;;21.05;4.57;;;5.20;99.90;;;;;;4932124;28;20089;-58
2023/02/25 08:57:01;;;;;;;22.75;4.57;;;5.20;99.90;;;;;;4944217;28;20043;-62
2023/02/25 08:59:34;;;;;;;26.80;3.67;;;5.30;99.90;;;;;;4942733;28;20054;-59
2023/02/25 09:02:05;;;;;;;20.55;2.72;;;5.40;99.90;;;;;;4930028;29;20051;-58
2023/02/25 09:04:32;;;;;;;12.13;2.70;;;5.40;99.90;;;;;;4946048;28;20055;-59
2023/02/25 09:07:01;;;;;;;18.33;4.35;;;5.40;99.90;;;;;;4925037;29;20550;-60
2023/02/25 09:09:39;;;;;;;13.32;4.32;;;5.50;99.90;;;;;;4940437;28;20115;-55
2023/02/25 09:12:07;;;;;;;34.47;7.50;;;5.50;99.90;;;;;;4937799;29;20056;-57
2023/02/25 09:14:36;;;;;;;25.42;3.58;;;5.50;99.90;;;;;;4926450;28;20356;-57
2023/02/25 09:17:03;;;;;;;14.60;3.80;;;5.50;99.90;;;;;;4948346;28;20501;-57
2023/02/25 09:19:31;;;;;;;14.38;2.97;;;5.50;99.90;;;;;;4943357;28;20134;-58
2023/02/25 09:21:57;;;;;;;16.25;4.95;;;5.60;99.90;;;;;;4909805;29;20183;-58
2023/02/25 09:24:26;;;;;;;17.27;3.50;;;5.70;99.90;;;;;;4936035;28;20051;-57
2023/02/25 09:26:53;;;;;;;16.35;3.40;;;5.70;99.90;;;;;;4932783;29;20056;-57
2023/02/25 09:29:20;;;;;;;18.20;3.72;;;5.70;99.90;;;;;;4922966;28;20050;-57
2023/02/25 09:31:49;;;;;;;11.13;4.20;;;5.80;99.90;;;;;;4940006;29;20062;-56
2023/02/25 09:34:17;;;;;;;28.50;5.43;;;5.80;99.90;;;;;;4940712;28;20047;-59
2023/02/25 09:36:44;;;;;;;14.55;3.33;;;5.80;99.90;;;;;;4928298;29;20533;-57
2023/02/25 09:39:11;;;;;;;16.00;3.03;;;5.90;99.90;;;;;;4942819;29;20043;-60
2023/02/25 09:41:51;;;;;;;18.50;2.88;;;5.90;99.90;;;;;;4944759;28;20059;-59
2023/02/25 09:44:31;;;;;;;19.50;2.97;;;5.90;99.90;;;;;;4955970;28;20047;-57
2023/02/25 09:47:08;;;;;;;25.92;3.65;;;5.80;99.90;;;;;;4923904;29;20089;-58
2023/02/25 09:49:54;;;;;;;16.30;4.20;;;5.80;99.90;;;;;;4956121;28;20251;-58
2023/02/25 09:52:40;;;;;;;16.90;3.20;;;5.90;99.90;;;;;;4956838;28;20043;-58
2023/02/25 09:55:32;;;;;;;16.10;3.60;;;5.90;99.90;;;;;;4926089;29;20047;-58
2023/02/25 09:58:41;;;;;;;17.23;3.58;;;5.90;99.90;;;;;;4940100;29;20146;-57
2023/02/25 10:01:25;;;;;;;17.55;2.95;;;5.90;99.90;;;;;;4920773;29;20057;-58
2023/02/25 10:04:29;;;;;;;16.95;3.13;;;6.00;99.90;;;;;;4926042;28;20174;-57
2023/02/25 10:06:56;;;;;;;14.98;2.63;;;6.10;99.90;;;;;;4941620;28;20066;-60
2023/02/25 10:09:38;;;;;;;13.63;3.15;;;6.20;99.90;;;;;;4926382;29;20345;-58
2023/02/25 10:12:36;;;;;;;29.85;5.28;;;6.10;99.90;;;;;;4940109;29;20059;-58
2023/02/25 10:15:24;;;;;;;10.57;2.35;;;6.30;99.90;;;;;;4936698;28;20521;-58
2023/02/25 10:18:16;;;;;;;12.88;3.15;;;6.40;99.90;;;;;;4923637;29;20468;-58
2023/02/25 10:21:07;;;;;;;14.98;2.92;;;6.60;99.90;;;;;;4928826;28;20086;-58
2023/02/25 10:24:02;;;;;;;19.73;3.70;;;6.80;99.90;;;;;;4898966;29;20062;-58
2023/02/25 10:26:31;;;;;;;;;;;6.90;99.90;;;;;;4926615;29;20411;-58
2023/02/25 10:29:06;;;;;;;10.93;2.30;;;7.10;99.90;;;;;;4939012;29;20457;-57
2023/02/25 10:31:33;;;;;;;24.80;3.65;;;7.10;99.90;;;;;;4955857;28;20517;-56
2023/02/25 10:34:24;;;;;;;18.17;2.90;;;7.20;99.90;;;;;;4920662;29;20047;-57
2023/02/25 10:36:54;;;;;;;14.30;2.30;;;7.20;99.90;;;;;;4928792;28;20063;-58
2023/02/25 10:39:21;;;;;;;13.82;1.95;;;7.00;99.90;;;;;;4916292;28;20474;-57
2023/02/25 10:41:48;;;;;;;13.40;2.90;;;7.00;99.90;;;;;;4943417;28;20051;-58
2023/02/25 10:44:15;;;;;;;17.02;5.05;;;7.10;99.90;;;;;;4939833;29;20110;-57
2023/02/25 10:46:49;;;;;;;12.93;2.08;;;7.20;99.90;;;;;;4944948;28;20533;-58
2023/02/25 10:49:19;;;;;;;18.27;1.85;;;7.40;99.90;;;;;;4942632;29;20679;-57
2023/02/25 10:52:17;;;;;;;11.98;2.17;;;7.40;99.90;;;;;;4926010;29;20130;-56
2023/02/25 10:54:51;;;;;;;14.20;1.95;;;7.50;99.90;;;;;;4945714;28;20055;-58
2023/02/25 10:57:25;;;;;;;24.67;2.67;;;7.60;99.90;;;;;;4943046;29;20479;-57
2023/02/25 11:00:12;;;;;;;12.93;2.33;;;7.50;99.90;;;;;;4963269;28;20251;-56
2023/02/25 11:02:41;;;;;;;13.52;2.60;;;7.50;99.90;;;;;;4944663;29;20139;-59
2023/02/25 11:05:31;;;;;;;13.40;2.22;;;7.60;99.90;;;;;;4944896;28;20051;-57
2023/02/25 11:07:58;;;;;;;16.20;2.92;;;7.60;99.90;;;;;;4960925;28;20047;-58
2023/02/25 11:10:25;;;;;;;12.80;2.30;;;7.50;99.90;;;;;;4942652;28;20577;-55
2023/02/25 11:12:55;;;;;;;12.05;2.08;;;7.60;99.90;;;;;;4946396;29;20542;-57
2023/02/25 11:15:33;;;;;;;12.65;2.92;;;7.60;99.90;;;;;;4941096;28;20182;-58
2023/02/25 11:18:20;;;;;;;27.60;6.00;;;7.60;99.90;;;;;;4948720;28;20101;-59
2023/02/25 11:20:51;;;;;;;12.70;3.00;;;7.60;99.90;;;;;;4927110;29;20138;-55
2023/02/25 11:23:28;;;;;;;17.67;2.85;;;7.60;99.90;;;;;;4937874;29;20079;-57
2023/02/25 11:25:55;;;;;;;15.50;2.13;;;7.70;99.90;;;;;;4923833;29;20495;-59
2023/02/25 11:28:29;;;;;;;13.38;2.20;;;7.80;99.90;;;;;;4927762;29;20065;-57
2023/02/25 11:31:16;;;;;;;17.13;3.00;;;7.80;99.90;;;;;;4930515;29;20047;-59
2023/02/25 11:33:48;;;;;;;10.38;2.10;;;7.80;99.90;;;;;;4926543;29;20057;-58
2023/02/25 11:36:19;;;;;;;19.67;2.63;;;7.80;99.90;;;;;;4941911;28;20157;-58
2023/02/25 11:38:46;;;;;;;13.13;1.90;;;7.80;99.90;;;;;;4923357;29;20139;-58
2023/02/25 11:41:21;;;;;;;20.60;2.50;;;7.80;99.90;;;;;;4939612;28;20561;-58
2023/02/25 11:43:48;;;;;;;16.48;3.75;;;7.80;99.90;;;;;;4943958;29;20087;-58
2023/02/25 11:46:23;;;;;;;9.48;1.60;;;7.80;99.90;;;;;;4917329;29;20043;-59
2023/02/25 11:48:59;;;;;;;10.85;2.63;;;7.80;99.90;;;;;;4925167;29;20142;-58
2023/02/25 11:51:39;;;;;;;6.30;1.80;;;7.80;99.90;;;;;;4921016;29;20600;-58
2023/02/25 11:54:50;;;;;;;7.97;1.88;;;7.90;99.90;;;;;;4943175;29;20568;-59
2023/02/25 11:57:38;;;;;;;9.00;1.58;;;8.10;99.90;;;;;;4869287;29;20128;-59
2023/02/25 12:00:13;;;;;;;12.60;2.15;;;8.20;99.90;;;;;;4920174;29;20142;-59
2023/02/25 12:02:59;;;;;;;10.00;1.95;;;8.20;99.90;;;;;;4927277;29;20051;-58
2023/02/25 12:05:35;;;;;;;9.77;1.35;;;8.10;99.90;;;;;;4927316;28;20065;-59
2023/02/25 12:08:22;;;;;;;6.13;1.90;;;8.10;99.90;;;;;;4935597;29;20043;-58
2023/02/25 12:11:13;;;;;;;10.75;2.85;;;8.00;99.90;;;;;;4922240;29;20237;-58
2023/02/25 12:14:17;;;;;;;11.95;2.03;;;8.00;99.90;;;;;;4933708;29;20051;-59
2023/02/25 12:17:03;;;;;;;12.93;2.00;;;7.90;99.90;;;;;;4939476;28;20048;-56
2023/02/25 12:19:30;;;;;;;8.82;1.50;;;7.90;99.90;;;;;;4943418;29;20043;-57
2023/02/25 12:22:27;;;;;;;13.95;2.05;;;7.80;99.90;;;;;;4929573;28;20448;-56
2023/02/25 12:25:00;;;;;;;12.93;1.80;;;7.80;99.90;;;;;;4937231;29;20134;-60
2023/02/25 12:27:38;;;;;;;15.05;3.00;;;7.70;99.90;;;;;;4937274;28;20052;-56
2023/02/25 12:30:36;;;;;;;7.53;1.48;;;7.60;99.90;;;;;;4938185;29;20047;-59
2023/02/25 12:33:30;;;;;;;19.48;4.30;;;7.50;99.90;;;;;;4928180;29;20496;-57
2023/02/25 12:36:02;;;;;;;12.05;2.33;;;7.40;99.90;;;;;;4914338;29;20490;-57
2023/02/25 12:38:57;;;;;;;6.57;1.50;;;7.00;99.90;;;;;;4938495;29;20050;-57
2023/02/25 12:41:23;;;;;;;7.57;1.58;;;6.90;99.90;;;;;;4942504;28;20043;-56
2023/02/25 12:44:05;;;;;;;6.97;1.27;;;6.80;99.90;;;;;;4940067;29;20194;-56
2023/02/25 12:47:00;;;;;;;6.63;1.40;;;6.80;99.90;;;;;;4938751;28;20082;-58
2023/02/25 12:49:53;;;;;;;5.78;1.20;;;6.70;99.90;;;;;;4914883;28;20049;-57
2023/02/25 12:52:59;;;;;;;6.95;1.38;;;6.60;99.90;;;;;;4940231;28;20066;-58
2023/02/25 12:55:35;;;;;;;8.95;2.05;;;6.80;99.90;;;;;;4942929;28;20055;-59
2023/02/25 12:58:26;;;;;;;10.15;1.90;;;6.90;99.90;;;;;;4924492;29;20055;-58
2023/02/25 13:01:21;;;;;;;15.40;1.83;;;7.00;99.90;;;;;;4938212;28;20051;-58
2023/02/25 13:04:17;;;;;;;11.80;2.08;;;7.10;99.90;;;;;;4912601;29;20135;-58
2023/02/25 13:06:46;;;;;;;;;;;7.20;99.90;;;;;;4945076;28;20094;-58
2023/02/25 13:09:28;;;;;;;12.07;2.00;;;7.30;99.90;;;;;;4940253;29;19923;-58
2023/02/25 13:11:58;;;;;;;12.07;1.85;;;7.30;99.90;;;;;;4942673;28;20209;-59
2023/02/25 13:14:37;;;;;;;6.95;2.50;;;7.30;99.90;;;;;;4939841;29;20044;-59
2023/02/25 13:17:24;;;;;;;10.23;2.42;;;7.10;99.90;;;;;;4941361;28;20057;-57